Time;durP1;ratioP1;P1;durP2;ratioP2;P2;SDS_P1;SDS_P2;PMS_P1;PMS_P2;Temp;Humidity;BMP_temperature;BMP_pressure;BME280_temperature;BME280_humidity;BME280_pressure;Samples;Min_cycle;Max_cycle;Signal;HPM_P1;HPM_P2
2023/03/25 00:00:18;;;;;;;5.70;2.38;;;10.10;99.90;;;;;;5114666;28;20093;-66
2023/03/25 00:02:48;;;;;;;3.38;1.77;;;10.00;99.90;;;;;;5079047;28;20040;-67
2023/03/25 00:05:19;;;;;;;3.63;1.80;;;10.00;99.90;;;;;;5113856;28;20101;-66
2023/03/25 00:07:49;;;;;;;3.60;1.77;;;10.00;99.90;;;;;;5096073;28;20074;-66
2023/03/25 00:10:17;;;;;;;3.55;1.95;;;9.90;99.90;;;;;;5096485;28;20146;-67
2023/03/25 00:12:44;;;;;;;4.20;2.38;;;9.80;99.90;;;;;;5113610;28;20070;-67
2023/03/25 00:15:12;;;;;;;4.38;2.17;;;9.70;99.90;;;;;;5107988;28;20040;-66
2023/03/25 00:17:39;;;;;;;4.80;2.42;;;9.70;99.90;;;;;;5075078;28;20036;-66
2023/03/25 00:20:08;;;;;;;7.00;2.90;;;9.60;99.90;;;;;;5104639;28;20055;-67
2023/03/25 00:22:39;;;;;;;5.72;2.65;;;9.70;99.90;;;;;;5105351;28;20070;-66
2023/03/25 00:25:16;;;;;;;7.25;3.03;;;9.70;99.90;;;;;;5095666;28;20462;-66
2023/03/25 00:27:45;;;;;;;10.00;3.58;;;9.70;99.90;;;;;;5095156;28;20127;-66
2023/03/25 00:30:14;;;;;;;8.13;2.85;;;9.80;99.90;;;;;;5092873;28;20138;-67
2023/03/25 00:32:48;;;;;;;6.70;3.15;;;9.80;99.90;;;;;;5104025;28;20065;-66
2023/03/25 00:35:18;;;;;;;6.68;3.42;;;9.90;99.90;;;;;;5095175;28;20092;-66
2023/03/25 00:37:58;;;;;;;5.45;3.03;;;9.90;99.90;;;;;;5079472;28;20043;-66
2023/03/25 00:40:29;;;;;;;6.45;3.20;;;9.90;99.90;;;;;;5096345;28;20140;-66
2023/03/25 00:42:56;;;;;;;4.75;3.00;;;9.90;99.90;;;;;;5094970;28;20145;-65
2023/03/25 00:45:24;;;;;;;6.25;2.80;;;9.80;99.90;;;;;;5078898;28;20073;-65
2023/03/25 00:47:51;;;;;;;6.35;2.83;;;9.90;99.90;;;;;;5113062;28;20090;-66
2023/03/25 00:50:20;;;;;;;5.18;2.92;;;9.90;99.90;;;;;;5095218;28;20474;-66
2023/03/25 00:52:48;;;;;;;6.05;2.22;;;9.90;99.90;;;;;;5113512;28;20410;-66
2023/03/25 00:55:16;;;;;;;4.68;2.60;;;9.80;99.90;;;;;;5113306;28;20131;-65
2023/03/25 00:57:43;;;;;;;6.57;3.05;;;9.80;99.90;;;;;;5112845;28;20040;-66
2023/03/25 01:00:14;;;;;;;6.72;3.00;;;9.80;99.90;;;;;;5113577;28;20559;-66
2023/03/25 01:02:44;;;;;;;6.45;2.70;;;9.80;99.90;;;;;;5112802;27;20043;-66
2023/03/25 01:05:12;;;;;;;5.20;2.70;;;9.80;99.90;;;;;;5108245;28;20051;-65
2023/03/25 01:07:40;;;;;;;4.85;2.90;;;9.70;99.90;;;;;;5091699;28;20552;-64
2023/03/25 01:10:08;;;;;;;7.05;2.92;;;9.60;99.90;;;;;;5112356;28;20050;-66
2023/03/25 01:12:36;;;;;;;5.82;2.50;;;9.40;99.90;;;;;;5112086;28;20126;-65
2023/03/25 01:15:05;;;;;;;5.30;2.80;;;9.30;99.90;;;;;;5094003;28;20093;-65
2023/03/25 01:17:32;;;;;;;4.70;2.65;;;9.30;99.90;;;;;;5095373;28;20493;-65
2023/03/25 01:20:04;;;;;;;6.72;3.03;;;9.10;99.90;;;;;;5094838;28;20479;-65
2023/03/25 01:22:32;;;;;;;6.10;2.85;;;9.10;99.90;;;;;;5112685;28;20050;-64
2023/03/25 01:25:00;;;;;;;5.68;2.35;;;9.10;99.90;;;;;;5094361;28;20121;-66
2023/03/25 01:27:29;;;;;;;4.45;2.20;;;9.10;99.90;;;;;;5092868;28;20088;-65
2023/03/25 01:29:57;;;;;;;4.97;2.47;;;9.00;99.90;;;;;;5093326;28;20399;-63
2023/03/25 01:32:24;;;;;;;8.05;2.17;;;8.90;99.90;;;;;;5111380;28;20412;-63
2023/03/25 01:34:52;;;;;;;6.95;2.13;;;8.80;99.90;;;;;;5093696;28;20051;-65
2023/03/25 01:37:21;;;;;;;4.60;2.58;;;8.80;99.90;;;;;;5111981;28;20515;-65
2023/03/25 01:39:49;;;;;;;6.70;2.20;;;8.80;99.90;;;;;;5111869;28;20093;-64
2023/03/25 01:42:16;;;;;;;8.15;2.40;;;8.80;99.90;;;;;;5112285;28;20032;-65
2023/03/25 01:44:43;;;;;;;4.65;1.90;;;8.80;99.90;;;;;;5094668;28;20121;-65
2023/03/25 01:47:11;;;;;;;4.10;1.70;;;8.80;99.90;;;;;;5113036;28;20043;-65
2023/03/25 01:49:45;;;;;;;5.63;1.85;;;8.70;99.90;;;;;;5074709;28;20048;-65
2023/03/25 01:52:20;;;;;;;4.15;1.98;;;8.80;99.90;;;;;;5099885;28;20485;-65
2023/03/25 01:54:52;;;;;;;5.30;1.90;;;8.70;99.90;;;;;;5106091;28;20506;-65
2023/03/25 01:57:21;;;;;;;5.65;1.75;;;8.70;99.90;;;;;;5112950;28;20130;-65
2023/03/25 01:59:50;;;;;;;6.78;2.00;;;8.70;99.90;;;;;;5093558;28;20387;-65
2023/03/25 02:02:19;;;;;;;6.60;2.20;;;8.70;99.90;;;;;;5112617;28;20511;-65
2023/03/25 02:04:57;;;;;;;4.03;1.80;;;8.80;99.90;;;;;;5112730;28;20059;-63
2023/03/25 02:07:29;;;;;;;4.80;1.83;;;8.70;99.90;;;;;;5112352;28;20042;-64
2023/03/25 02:10:01;;;;;;;4.60;1.65;;;8.70;99.90;;;;;;5112171;28;20039;-66
2023/03/25 02:12:28;;;;;;;4.32;1.92;;;8.70;99.90;;;;;;5108719;28;20469;-65
2023/03/25 02:14:59;;;;;;;3.78;1.70;;;8.70;99.90;;;;;;5102452;28;20130;-65
2023/03/25 02:17:41;;;;;;;3.78;1.52;;;8.70;99.90;;;;;;5112253;28;20067;-66
2023/03/25 02:20:32;;;;;;;;;;;8.70;99.90;;;;;;5094195;28;20112;-66
2023/03/25 02:23:08;;;;;;;8.10;1.75;;;8.80;99.90;;;;;;5049521;28;20283;-66
2023/03/25 02:25:57;;;;;;;6.22;1.75;;;8.70;99.90;;;;;;5032979;28;20507;-65
2023/03/25 02:28:36;;;;;;;5.00;1.63;;;8.60;99.90;;;;;;5032371;28;20146;-66
2023/03/25 02:31:32;;;;;;;4.03;1.52;;;8.60;99.90;;;;;;5032497;28;20048;-65
2023/03/25 02:34:36;;;;;;;7.68;1.60;;;8.60;99.90;;;;;;4999953;28;20041;-66
2023/03/25 02:37:52;;;;;;;6.43;1.80;;;8.60;99.90;;;;;;5047919;28;20056;-66
2023/03/25 02:40:35;;;;;;;4.30;1.80;;;8.60;99.90;;;;;;5016684;28;20045;-66
2023/03/25 02:43:42;;;;;;;2.17;1.30;;;8.60;99.90;;;;;;5029176;28;20041;-65
2023/03/25 02:46:16;;;;;;;4.75;1.60;;;8.60;99.90;;;;;;4991887;28;20055;-66
2023/03/25 02:49:07;;;;;;;4.70;1.70;;;8.60;99.90;;;;;;5028909;28;20129;-65
2023/03/25 02:51:44;;;;;;;4.03;1.52;;;8.50;99.90;;;;;;5043915;28;20449;-65
2023/03/25 02:54:15;;;;;;;4.40;1.48;;;8.50;99.90;;;;;;5047997;28;20044;-64
2023/03/25 02:56:44;;;;;;;3.47;1.75;;;8.50;99.90;;;;;;5032673;28;20045;-65
2023/03/25 02:59:15;;;;;;;5.97;1.40;;;8.50;99.90;;;;;;5057780;28;20078;-67
2023/03/25 03:01:44;;;;;;;5.38;1.65;;;8.60;99.90;;;;;;5081527;28;20063;-65
2023/03/25 03:04:11;;;;;;;5.22;1.35;;;8.50;99.90;;;;;;5072956;28;20117;-65
2023/03/25 03:06:43;;;;;;;3.97;1.23;;;8.50;99.90;;;;;;5088451;28;20051;-65
2023/03/25 03:09:51;;;;;;;6.57;1.60;;;8.50;99.90;;;;;;5111307;28;20541;-65
2023/03/25 03:12:51;;;;;;;5.18;1.80;;;8.50;99.90;;;;;;5111402;28;20040;-66
2023/03/25 03:15:36;;;;;;;4.10;1.58;;;8.50;99.90;;;;;;5111578;28;20036;-66
2023/03/25 03:18:13;;;;;;;4.18;1.65;;;8.40;99.90;;;;;;5110521;28;20039;-66
2023/03/25 03:20:48;;;;;;;2.95;1.45;;;8.40;99.90;;;;;;5103806;28;20084;-66
2023/03/25 03:23:27;;;;;;;5.00;1.77;;;8.40;99.90;;;;;;5073827;28;20093;-66
2023/03/25 03:26:18;;;;;;;5.07;1.55;;;8.50;99.90;;;;;;5101014;28;20055;-66
2023/03/25 03:29:02;;;;;;;7.00;1.52;;;8.50;99.90;;;;;;5067189;28;20050;-64
2023/03/25 03:31:40;;;;;;;11.80;2.03;;;8.50;99.90;;;;;;5089990;28;20050;-64
2023/03/25 03:34:33;;;;;;;5.65;1.73;;;8.50;99.90;;;;;;5090245;28;20563;-65
2023/03/25 03:37:02;;;;;;;8.00;1.80;;;8.50;99.90;;;;;;5090164;28;20386;-65
2023/03/25 03:39:34;;;;;;;7.85;1.80;;;8.60;99.90;;;;;;5089107;28;20043;-65
2023/03/25 03:42:08;;;;;;;4.43;1.60;;;8.60;99.90;;;;;;5090460;28;20094;-64
2023/03/25 03:44:39;;;;;;;5.38;1.80;;;8.50;99.90;;;;;;5089289;28;20046;-64
2023/03/25 03:47:10;;;;;;;8.60;1.98;;;8.50;99.90;;;;;;5090091;28;20083;-67
2023/03/25 03:49:42;;;;;;;4.45;1.58;;;8.50;99.90;;;;;;5089423;28;20040;-65
2023/03/25 03:52:15;;;;;;;4.72;1.73;;;8.60;99.90;;;;;;5109318;28;20047;-66
2023/03/25 03:54:57;;;;;;;6.18;1.85;;;8.60;99.90;;;;;;5109497;28;20039;-65
2023/03/25 03:57:36;;;;;;;5.00;1.95;;;8.60;99.90;;;;;;5110952;28;20536;-65
2023/03/25 04:00:06;;;;;;;5.18;1.52;;;8.60;99.90;;;;;;5097774;28;20446;-64
2023/03/25 04:02:46;;;;;;;3.60;1.27;;;8.60;99.90;;;;;;5087614;28;20040;-65
2023/03/25 04:05:16;;;;;;;4.72;1.65;;;8.60;99.90;;;;;;5070083;28;20113;-65
2023/03/25 04:07:53;;;;;;;3.45;1.80;;;8.60;99.90;;;;;;5053647;28;20067;-65
2023/03/25 04:10:33;;;;;;;4.53;2.03;;;8.60;99.90;;;;;;5088433;28;20119;-65
2023/03/25 04:13:05;;;;;;;4.00;1.50;;;8.70;99.90;;;;;;5089913;28;20040;-65
2023/03/25 04:15:33;;;;;;;6.18;1.55;;;8.70;99.90;;;;;;5088458;28;20408;-65
2023/03/25 04:18:02;;;;;;;3.63;1.30;;;8.60;99.90;;;;;;5091280;28;20046;-64
2023/03/25 04:20:35;;;;;;;6.13;1.42;;;8.60;99.90;;;;;;5090803;28;20040;-64
2023/03/25 04:23:08;;;;;;;3.45;1.45;;;8.50;99.90;;;;;;5096074;28;20059;-63
2023/03/25 04:25:36;;;;;;;2.53;1.48;;;8.30;99.90;;;;;;5064922;28;20622;-63
2023/03/25 04:28:03;;;;;;;3.65;1.40;;;8.20;99.90;;;;;;5092125;28;20498;-64
2023/03/25 04:30:30;;;;;;;6.03;1.30;;;8.10;99.90;;;;;;5093100;28;20202;-63
2023/03/25 04:32:59;;;;;;;3.67;1.40;;;8.00;99.90;;;;;;5092830;28;20509;-65
2023/03/25 04:35:26;;;;;;;2.35;1.20;;;8.00;99.90;;;;;;5091832;28;20081;-64
2023/03/25 04:37:56;;;;;;;5.25;1.40;;;7.90;99.90;;;;;;5092322;28;20127;-64
2023/03/25 04:40:24;;;;;;;3.05;1.20;;;7.80;99.90;;;;;;5074378;28;20486;-64
2023/03/25 04:42:52;;;;;;;5.50;1.40;;;7.80;99.90;;;;;;5092017;28;20062;-64
2023/03/25 04:45:20;;;;;;;7.07;1.52;;;7.80;99.90;;;;;;5075066;28;20115;-64
2023/03/25 04:47:48;;;;;;;4.07;1.20;;;7.80;99.90;;;;;;5074285;28;20109;-66
2023/03/25 04:50:23;;;;;;;3.17;1.40;;;7.80;99.90;;;;;;5078617;28;20067;-64
2023/03/25 04:52:52;;;;;;;3.17;1.27;;;7.80;99.90;;;;;;5077428;28;20043;-64
2023/03/25 04:55:20;;;;;;;5.45;1.42;;;7.80;99.90;;;;;;5112602;28;20173;-64
2023/03/25 04:57:49;;;;;;;4.00;1.38;;;7.80;99.90;;;;;;5112471;28;20497;-65
2023/03/25 05:00:21;;;;;;;2.45;1.33;;;7.70;99.90;;;;;;5113609;28;20231;-64
2023/03/25 05:02:50;;;;;;;2.40;1.30;;;7.70;99.90;;;;;;5098526;28;20128;-64
2023/03/25 05:05:20;;;;;;;2.70;1.30;;;7.70;99.90;;;;;;5093083;28;20085;-64
2023/03/25 05:07:49;;;;;;;2.97;1.50;;;7.70;99.90;;;;;;5092256;28;20501;-64
2023/03/25 05:10:19;;;;;;;2.78;1.20;;;7.70;99.90;;;;;;5092583;28;20051;-64
2023/03/25 05:12:47;;;;;;;3.15;1.38;;;7.70;99.90;;;;;;5092913;28;20059;-65
2023/03/25 05:15:16;;;;;;;3.15;1.52;;;7.70;99.90;;;;;;5090836;28;20119;-64
2023/03/25 05:17:44;;;;;;;6.05;1.30;;;7.70;99.90;;;;;;5093185;28;20055;-64
2023/03/25 05:20:13;;;;;;;5.60;1.40;;;7.70;99.90;;;;;;5090885;28;20324;-64
2023/03/25 05:22:40;;;;;;;2.88;1.45;;;7.70;99.90;;;;;;5105510;28;20067;-63
2023/03/25 05:25:09;;;;;;;2.55;1.40;;;7.70;99.90;;;;;;5089782;28;20516;-64
2023/03/25 05:27:38;;;;;;;5.55;1.40;;;7.60;99.90;;;;;;5089851;28;20139;-64
2023/03/25 05:30:06;;;;;;;3.83;1.30;;;7.60;99.90;;;;;;5084253;28;20054;-64
2023/03/25 05:32:33;;;;;;;3.10;1.30;;;7.60;99.90;;;;;;5100517;28;20086;-64
2023/03/25 05:35:04;;;;;;;3.45;1.27;;;7.70;99.90;;;;;;5089520;28;20475;-64
2023/03/25 05:37:31;;;;;;;2.67;1.30;;;7.70;99.90;;;;;;5072563;28;20130;-64
2023/03/25 05:39:59;;;;;;;4.57;1.50;;;7.70;99.90;;;;;;5091163;28;20527;-64
2023/03/25 05:42:26;;;;;;;6.93;1.50;;;7.60;99.90;;;;;;5092135;28;20418;-65
2023/03/25 05:44:53;;;;;;;3.33;1.50;;;7.60;99.90;;;;;;5092744;28;20143;-64
2023/03/25 05:47:23;;;;;;;3.08;1.60;;;7.60;99.90;;;;;;5099782;28;20038;-65
2023/03/25 05:49:52;;;;;;;4.20;1.48;;;7.60;99.90;;;;;;5111922;28;20131;-64
2023/03/25 05:52:23;;;;;;;6.00;1.60;;;7.60;99.90;;;;;;5111436;28;20425;-65
2023/03/25 05:54:50;;;;;;;2.55;1.40;;;7.60;99.90;;;;;;5093918;28;20108;-64
2023/03/25 05:57:18;;;;;;;3.95;1.40;;;7.60;99.90;;;;;;5112388;28;20050;-65
2023/03/25 05:59:46;;;;;;;3.38;1.50;;;7.60;99.90;;;;;;5092216;28;20494;-65
2023/03/25 06:02:16;;;;;;;3.55;1.30;;;7.70;99.90;;;;;;5110805;28;20126;-65
2023/03/25 06:04:45;;;;;;;3.60;1.40;;;7.70;99.90;;;;;;5111991;28;20047;-65
2023/03/25 06:07:18;;;;;;;3.05;1.40;;;7.70;99.90;;;;;;5098633;28;20486;-63
2023/03/25 06:09:47;;;;;;;5.13;1.48;;;7.70;99.90;;;;;;5110334;28;20412;-66
2023/03/25 06:12:18;;;;;;;1.85;1.35;;;7.70;99.90;;;;;;5107765;28;20093;-65
2023/03/25 06:14:46;;;;;;;;;;;7.70;99.90;;;;;;5111793;28;20039;-66
2023/03/25 06:17:17;;;;;;;2.28;1.50;;;7.70;99.90;;;;;;5092904;28;19919;-66
2023/03/25 06:19:45;;;;;;;5.05;1.48;;;7.70;99.90;;;;;;5111466;28;20040;-64
2023/03/25 06:22:13;;;;;;;9.13;1.60;;;7.70;99.90;;;;;;5110346;28;20429;-64
2023/03/25 06:24:41;;;;;;;3.75;1.40;;;7.70;99.90;;;;;;5111530;27;20534;-65
2023/03/25 06:27:15;;;;;;;6.15;1.73;;;7.80;99.90;;;;;;5091578;28;20047;-66
2023/03/25 06:29:43;;;;;;;2.90;1.33;;;7.80;99.90;;;;;;5107908;28;20174;-65
2023/03/25 06:32:13;;;;;;;3.17;1.63;;;7.90;99.90;;;;;;5091993;28;20138;-65
2023/03/25 06:34:43;;;;;;;5.88;1.52;;;7.80;99.90;;;;;;5111121;28;20055;-65
2023/03/25 06:37:10;;;;;;;5.38;1.75;;;7.90;99.90;;;;;;5101388;28;20032;-64
2023/03/25 06:39:38;;;;;;;3.30;1.70;;;7.90;99.90;;;;;;5111622;28;20062;-65
2023/03/25 06:42:14;;;;;;;4.78;1.60;;;8.00;99.90;;;;;;5092788;28;20043;-65
2023/03/25 06:45:03;;;;;;;4.32;1.80;;;8.00;99.90;;;;;;5091395;28;20047;-65
2023/03/25 06:47:41;;;;;;;7.80;1.92;;;8.20;99.90;;;;;;5072422;28;20055;-65
2023/03/25 06:50:09;;;;;;;2.53;1.88;;;8.30;99.90;;;;;;5110961;28;20484;-65
2023/03/25 06:52:36;;;;;;;8.07;1.90;;;8.30;99.90;;;;;;5110138;28;20407;-65
2023/03/25 06:55:04;;;;;;;4.20;1.50;;;8.30;99.90;;;;;;5111306;28;20393;-64
2023/03/25 06:57:31;;;;;;;5.38;2.17;;;8.40;99.90;;;;;;5111223;28;20042;-65
2023/03/25 06:59:59;;;;;;;6.80;2.08;;;8.50;99.90;;;;;;5110363;28;20126;-65
2023/03/25 07:02:26;;;;;;;3.95;1.67;;;8.60;99.90;;;;;;5111343;28;20051;-65
2023/03/25 07:04:53;;;;;;;4.80;1.70;;;8.50;99.90;;;;;;5110904;28;20093;-65
2023/03/25 07:07:21;;;;;;;4.47;1.75;;;8.60;99.90;;;;;;5092767;28;20335;-65
2023/03/25 07:09:53;;;;;;;4.85;1.88;;;8.70;99.90;;;;;;5110896;28;20059;-65
2023/03/25 07:12:22;;;;;;;4.90;2.13;;;8.70;99.90;;;;;;5092529;28;20035;-65
2023/03/25 07:14:54;;;;;;;5.43;2.33;;;8.70;99.90;;;;;;5090491;28;20520;-65
2023/03/25 07:17:22;;;;;;;4.97;2.10;;;8.70;99.90;;;;;;5089982;28;20442;-65
2023/03/25 07:19:50;;;;;;;5.28;1.80;;;8.70;99.90;;;;;;5110771;28;20051;-64
2023/03/25 07:22:17;;;;;;;7.13;2.67;;;8.80;99.90;;;;;;5109170;28;20485;-64
2023/03/25 07:24:45;;;;;;;8.50;2.83;;;8.70;99.90;;;;;;5090231;28;20117;-64
2023/03/25 07:27:13;;;;;;;5.22;2.03;;;8.70;99.90;;;;;;5104528;28;20118;-64
2023/03/25 07:29:47;;;;;;;4.15;1.80;;;8.80;99.90;;;;;;5092019;28;20137;-64
2023/03/25 07:32:15;;;;;;;5.85;2.17;;;8.80;99.90;;;;;;5079881;28;20459;-65
2023/03/25 07:34:42;;;;;;;5.47;2.15;;;8.80;99.90;;;;;;5082545;28;20066;-64
2023/03/25 07:37:10;;;;;;;5.00;1.90;;;8.70;99.90;;;;;;5089806;28;20098;-64
2023/03/25 07:39:37;;;;;;;4.05;1.70;;;8.80;99.90;;;;;;5092687;28;20052;-64
2023/03/25 07:42:05;;;;;;;4.30;1.80;;;8.80;99.90;;;;;;5092658;28;20047;-64
2023/03/25 07:44:52;;;;;;;4.40;1.90;;;8.80;99.90;;;;;;5109941;28;20102;-65
2023/03/25 07:47:19;;;;;;;3.92;1.90;;;8.80;99.90;;;;;;5092788;28;20090;-65
2023/03/25 07:49:48;;;;;;;5.22;1.90;;;8.80;99.90;;;;;;5110285;28;20056;-67
2023/03/25 07:52:16;;;;;;;3.47;1.65;;;8.80;99.90;;;;;;5109927;28;20055;-65
2023/03/25 07:54:43;;;;;;;3.15;2.00;;;8.90;99.90;;;;;;5103014;28;20036;-65
2023/03/25 07:57:12;;;;;;;5.13;1.73;;;9.00;99.90;;;;;;5099550;28;20085;-65
2023/03/25 07:59:39;;;;;;;2.92;1.60;;;9.10;99.90;;;;;;5107362;28;20039;-66
2023/03/25 08:02:11;;;;;;;4.60;2.00;;;9.20;99.90;;;;;;5102128;28;20044;-65
2023/03/25 08:04:39;;;;;;;3.60;1.73;;;9.10;99.90;;;;;;5101556;28;20504;-66
2023/03/25 08:07:06;;;;;;;5.63;2.10;;;9.10;99.90;;;;;;5096144;28;20101;-66
2023/03/25 08:09:34;;;;;;;3.95;1.70;;;9.20;99.90;;;;;;5114275;28;20605;-66
2023/03/25 08:12:02;;;;;;;3.97;1.60;;;9.30;99.90;;;;;;5095608;28;20159;-67
2023/03/25 08:14:29;;;;;;;5.90;2.33;;;9.40;99.90;;;;;;5108346;28;20048;-67
2023/03/25 08:16:56;;;;;;;5.65;2.33;;;9.40;99.90;;;;;;5107319;28;20493;-67
2023/03/25 08:19:24;;;;;;;5.95;2.25;;;9.50;99.90;;;;;;5096346;28;20484;-67
2023/03/25 08:21:51;;;;;;;5.28;2.20;;;9.60;99.90;;;;;;5108670;28;20541;-66
2023/03/25 08:24:19;;;;;;;6.53;2.25;;;9.70;99.90;;;;;;5101421;28;20040;-66
2023/03/25 08:26:48;;;;;;;5.35;2.25;;;9.70;99.90;;;;;;5113576;28;20044;-66
2023/03/25 08:29:16;;;;;;;7.88;2.50;;;9.90;99.90;;;;;;5113592;28;20063;-67
2023/03/25 08:31:45;;;;;;;8.20;2.75;;;9.80;99.90;;;;;;5113554;28;20067;-67
2023/03/25 08:34:13;;;;;;;7.97;2.35;;;9.70;99.90;;;;;;5112581;28;20055;-67
2023/03/25 08:36:40;;;;;;;5.53;2.35;;;9.70;99.90;;;;;;5104597;28;20409;-66
2023/03/25 08:39:10;;;;;;;9.38;2.75;;;9.70;99.90;;;;;;5098630;28;20044;-67
2023/03/25 08:41:38;;;;;;;7.35;2.40;;;9.80;99.90;;;;;;5093389;28;20044;-68
2023/03/25 08:44:06;;;;;;;10.90;2.35;;;10.00;99.90;;;;;;5100375;28;20036;-66
2023/03/25 08:46:33;;;;;;;7.15;2.80;;;10.30;99.90;;;;;;5108175;28;20036;-66
2023/03/25 08:49:01;;;;;;;5.50;2.70;;;10.40;99.90;;;;;;5113336;28;20055;-67
2023/03/25 08:51:28;;;;;;;10.35;2.60;;;10.30;99.90;;;;;;5089532;28;20071;-65
2023/03/25 08:53:55;;;;;;;4.50;2.42;;;10.30;99.90;;;;;;5101235;28;20048;-67
2023/03/25 08:56:23;;;;;;;7.88;3.05;;;10.40;99.90;;;;;;5095768;28;20063;-67
2023/03/25 08:58:50;;;;;;;10.63;2.90;;;10.60;99.90;;;;;;5103652;28;20054;-67
2023/03/25 09:01:17;;;;;;;9.20;2.97;;;10.70;99.90;;;;;;5093051;28;20043;-66
2023/03/25 09:03:45;;;;;;;6.78;2.97;;;10.60;99.90;;;;;;5100044;28;20102;-66
2023/03/25 09:06:13;;;;;;;7.40;2.50;;;10.60;99.90;;;;;;5076271;28;20446;-67
2023/03/25 09:08:40;;;;;;;6.43;2.47;;;10.70;99.90;;;;;;5110334;28;20108;-67
2023/03/25 09:11:07;;;;;;;9.63;3.10;;;10.70;99.90;;;;;;5095450;28;20422;-67
2023/03/25 09:13:35;;;;;;;10.35;3.67;;;10.80;99.90;;;;;;5096342;28;20551;-67
2023/03/25 09:16:02;;;;;;;5.95;2.88;;;10.80;99.90;;;;;;5073553;28;20429;-68
2023/03/25 09:18:30;;;;;;;8.90;3.05;;;11.00;99.90;;;;;;5101090;28;20110;-68
2023/03/25 09:20:59;;;;;;;8.43;3.00;;;10.80;99.90;;;;;;5091581;28;20048;-66
2023/03/25 09:23:30;;;;;;;9.70;3.33;;;10.90;99.90;;;;;;5099707;28;20048;-69
2023/03/25 09:26:05;;;;;;;8.13;2.70;;;11.00;99.90;;;;;;5101704;28;20119;-66
2023/03/25 09:28:33;;;;;;;9.63;2.92;;;11.30;99.90;;;;;;5092072;28;20056;-68
2023/03/25 09:31:00;;;;;;;7.28;2.83;;;11.30;99.90;;;;;;5073129;28;20040;-65
2023/03/25 09:33:28;;;;;;;7.88;2.90;;;11.40;99.90;;;;;;5090908;28;20050;-69
2023/03/25 09:35:55;;;;;;;5.60;2.67;;;11.70;99.90;;;;;;5091175;28;20040;-69
2023/03/25 09:38:22;;;;;;;8.02;3.00;;;11.70;99.90;;;;;;5113217;28;20469;-68
2023/03/25 09:40:50;;;;;;;6.93;3.17;;;11.30;99.90;;;;;;5096388;28;20406;-66
2023/03/25 09:43:53;;;;;;;6.03;3.03;;;11.10;99.90;;;;;;5092108;28;20067;-66
2023/03/25 09:46:20;;;;;;;6.80;2.72;;;11.20;99.90;;;;;;5008479;28;20049;-64
2023/03/25 09:48:49;;;;;;;4.93;2.80;;;11.20;99.90;;;;;;5023576;28;20046;-64
2023/03/25 09:51:23;;;;;;;8.90;3.38;;;11.30;99.90;;;;;;4991049;28;20559;-67
2023/03/25 09:54:07;;;;;;;7.18;2.50;;;11.20;99.90;;;;;;5007163;28;20520;-68
2023/03/25 09:56:37;;;;;;;6.72;2.63;;;11.30;99.90;;;;;;4990897;28;20497;-68
2023/03/25 09:59:22;;;;;;;6.22;2.60;;;11.30;99.90;;;;;;5007804;28;20062;-68
2023/03/25 10:02:21;;;;;;;4.82;2.65;;;11.20;99.90;;;;;;5012950;28;20042;-68
2023/03/25 10:04:51;;;;;;;7.28;3.20;;;11.20;99.90;;;;;;4979841;28;20041;-67
2023/03/25 10:07:24;;;;;;;5.53;2.67;;;11.30;99.90;;;;;;5008899;28;20046;-68
2023/03/25 10:09:57;;;;;;;5.80;2.90;;;11.40;99.90;;;;;;5008341;28;20045;-69
2023/03/25 10:12:50;;;;;;;6.90;2.78;;;11.30;99.90;;;;;;5008281;28;20045;-68
2023/03/25 10:15:53;;;;;;;5.43;2.88;;;11.50;99.90;;;;;;4991862;28;20061;-69
2023/03/25 10:18:39;;;;;;;4.63;2.70;;;11.60;99.90;;;;;;4998193;28;20840;-67
2023/03/25 10:21:14;;;;;;;4.55;2.53;;;11.80;99.90;;;;;;5073415;28;20454;-65
2023/03/25 10:23:54;;;;;;;6.53;2.67;;;11.90;99.90;;;;;;5079449;28;20537;-67
2023/03/25 10:26:31;;;;;;;4.32;2.50;;;12.00;99.90;;;;;;5092046;28;20051;-66
2023/03/25 10:29:07;;;;;;;7.70;2.83;;;11.90;99.90;;;;;;5071208;28;20461;-67
2023/03/25 10:31:41;;;;;;;5.40;2.60;;;11.60;99.90;;;;;;5093911;28;20501;-67
2023/03/25 10:34:22;;;;;;;4.72;2.45;;;11.70;99.90;;;;;;5092997;28;20044;-66
2023/03/25 10:36:57;;;;;;;5.60;2.70;;;11.40;99.90;;;;;;5072123;28;20114;-69
2023/03/25 10:39:33;;;;;;;6.78;2.80;;;11.20;99.90;;;;;;5088804;28;20094;-65
2023/03/25 10:42:13;;;;;;;5.32;2.60;;;11.30;99.90;;;;;;5090890;28;20052;-69
2023/03/25 10:44:40;;;;;;;4.90;2.22;;;11.20;99.90;;;;;;5092995;28;20508;-69
2023/03/25 10:47:14;;;;;;;5.55;2.47;;;10.90;99.90;;;;;;5093628;28;20059;-70
2023/03/25 10:49:42;;;;;;;5.82;2.45;;;10.90;99.90;;;;;;5089636;28;20528;-70
2023/03/25 10:52:10;;;;;;;5.55;2.30;;;10.90;99.90;;;;;;5086807;28;20482;-66
2023/03/25 10:54:46;;;;;;;6.45;2.40;;;10.90;99.90;;;;;;5104884;28;20036;-67
2023/03/25 10:57:25;;;;;;;5.05;2.58;;;10.90;99.90;;;;;;5094327;28;20044;-68
2023/03/25 11:00:05;;;;;;;7.18;2.83;;;11.10;99.90;;;;;;5106810;28;20096;-67
2023/03/25 11:02:33;;;;;;;7.10;2.85;;;11.10;99.90;;;;;;5103725;28;20046;-68
2023/03/25 11:05:05;;;;;;;5.88;2.45;;;11.20;99.90;;;;;;5107106;28;20040;-69
2023/03/25 11:07:37;;;;;;;5.78;2.58;;;11.00;99.90;;;;;;5086437;28;20498;-69
2023/03/25 11:10:14;;;;;;;4.30;2.60;;;10.80;99.90;;;;;;5090159;28;20092;-68
2023/03/25 11:12:46;;;;;;;6.22;2.17;;;10.50;99.90;;;;;;5109268;28;20502;-68
2023/03/25 11:15:19;;;;;;;3.13;2.10;;;9.90;99.90;;;;;;5072143;28;20058;-67
2023/03/25 11:17:54;;;;;;;5.50;2.67;;;9.40;99.90;;;;;;5075875;28;20047;-65
2023/03/25 11:20:34;;;;;;;6.65;2.45;;;9.00;99.90;;;;;;5091683;28;20524;-67
2023/03/25 11:23:06;;;;;;;5.55;3.47;;;8.50;99.90;;;;;;5109070;28;20532;-68
2023/03/25 11:25:40;;;;;;;;;;;7.80;99.90;;;;;;5103540;28;20028;-66
2023/03/25 11:28:21;;;;;;;5.85;4.20;;;7.20;99.90;;;;;;5079254;28;20357;-66
2023/03/25 11:31:12;;;;;;;4.13;3.72;;;6.80;99.90;;;;;;5109917;28;20088;-67
2023/03/25 11:33:42;;;;;;;3.60;2.80;;;6.80;99.90;;;;;;5109328;28;20032;-66
2023/03/25 11:36:15;;;;;;;3.80;2.60;;;7.10;99.90;;;;;;5071129;28;20482;-66
2023/03/25 11:38:49;;;;;;;3.30;2.30;;;7.40;99.90;;;;;;5089085;28;20103;-65
2023/03/25 11:41:17;;;;;;;2.78;2.08;;;7.70;99.90;;;;;;5089663;28;20439;-66
2023/03/25 11:43:48;;;;;;;4.57;2.65;;;8.20;99.90;;;;;;5107527;28;20066;-66
2023/03/25 11:46:17;;;;;;;3.35;2.08;;;8.50;99.90;;;;;;5099781;28;20115;-67
2023/03/25 11:48:45;;;;;;;5.18;1.85;;;8.80;99.90;;;;;;5089572;28;20460;-66
2023/03/25 11:51:20;;;;;;;3.30;2.28;;;9.20;99.90;;;;;;5088682;28;20123;-67
2023/03/25 11:54:17;;;;;;;3.55;1.98;;;9.30;99.90;;;;;;5108407;28;20059;-67
2023/03/25 11:56:48;;;;;;;3.30;2.25;;;9.70;99.90;;;;;;5067970;28;20062;-66
2023/03/25 11:59:22;;;;;;;2.78;1.80;;;9.90;99.90;;;;;;5110592;28;20060;-66
2023/03/25 12:01:58;;;;;;;1.75;1.30;;;10.30;99.90;;;;;;5054772;28;20042;-67
2023/03/25 12:04:25;;;;;;;2.53;1.30;;;10.30;99.90;;;;;;5095939;28;20044;-66
2023/03/25 12:06:58;;;;;;;2.95;1.25;;;10.20;99.90;;;;;;5100194;28;20036;-66
2023/03/25 12:09:28;;;;;;;1.80;1.27;;;10.30;99.90;;;;;;5095736;28;20036;-66
2023/03/25 12:12:08;;;;;;;4.20;1.70;;;10.30;99.90;;;;;;5109243;28;20067;-67
2023/03/25 12:14:53;;;;;;;2.35;1.20;;;10.50;99.90;;;;;;5088799;28;20526;-66
2023/03/25 12:17:26;;;;;;;2.13;1.27;;;10.70;99.90;;;;;;5088867;28;20452;-66
2023/03/25 12:20:11;;;;;;;2.05;1.15;;;11.00;99.90;;;;;;5089439;28;20127;-66
2023/03/25 12:23:16;;;;;;;2.65;1.42;;;11.40;99.90;;;;;;5080388;28;20063;-67
2023/03/25 12:26:14;;;;;;;5.72;1.30;;;11.80;99.90;;;;;;5075998;28;20109;-66
2023/03/25 12:28:59;;;;;;;3.05;1.30;;;12.60;99.90;;;;;;5087512;28;20055;-67
2023/03/25 12:31:40;;;;;;;2.92;1.48;;;13.20;99.90;;;;;;5077407;28;20405;-66
2023/03/25 12:34:48;;;;;;;1.90;1.30;;;12.90;99.90;;;;;;5074379;28;20538;-66
2023/03/25 12:37:55;;;;;;;1.73;1.30;;;12.70;99.90;;;;;;5090786;28;20046;-68
2023/03/25 12:40:31;;;;;;;2.33;1.50;;;12.90;99.90;;;;;;5068534;28;20043;-67
2023/03/25 12:43:03;;;;;;;3.05;1.80;;;13.00;99.90;;;;;;5106258;28;20050;-66
2023/03/25 12:45:31;;;;;;;1.75;1.40;;;12.90;99.90;;;;;;5102349;28;20402;-66
2023/03/25 12:48:07;;;;;;;1.98;1.50;;;13.40;99.90;;;;;;5108778;28;20170;-65
2023/03/25 12:50:43;;;;;;;1.88;1.50;;;13.40;99.90;;;;;;5111091;28;20032;-66
2023/03/25 12:53:44;;;;;;;3.38;2.05;;;13.60;99.90;;;;;;5103319;28;20046;-66
2023/03/25 12:56:28;;;;;;;2.13;1.80;;;13.30;99.90;;;;;;5074329;28;20563;-66
2023/03/25 12:58:58;;;;;;;3.63;1.63;;;12.90;99.90;;;;;;5102909;28;20083;-67
2023/03/25 13:01:59;;;;;;;2.42;1.95;;;12.70;99.90;;;;;;5092872;28;20067;-66
2023/03/25 13:04:57;;;;;;;2.28;1.90;;;12.80;99.90;;;;;;5088437;28;20078;-66
2023/03/25 13:07:29;;;;;;;2.42;1.70;;;12.30;99.90;;;;;;5091640;28;20101;-66
2023/03/25 13:10:16;;;;;;;3.63;1.70;;;11.90;99.90;;;;;;5072264;28;20093;-66
2023/03/25 13:12:47;;;;;;;2.92;1.80;;;11.50;99.90;;;;;;5091094;28;20068;-65
2023/03/25 13:15:24;;;;;;;3.03;1.90;;;11.40;99.90;;;;;;5090469;28;20131;-65
2023/03/25 13:18:02;;;;;;;2.60;1.52;;;10.60;99.90;;;;;;5092139;28;20039;-67
2023/03/25 13:20:36;;;;;;;2.45;1.70;;;9.90;99.90;;;;;;5091129;28;20440;-66
2023/03/25 13:23:06;;;;;;;1.63;1.30;;;9.60;99.90;;;;;;5108632;28;20393;-66
2023/03/25 13:25:43;;;;;;;2.90;1.20;;;9.60;99.90;;;;;;5093359;28;20466;-66